Time;durP1;ratioP1;P1;durP2;ratioP2;P2;SDS_P1;SDS_P2;PMS_P1;PMS_P2;Temp;Humidity;BMP_temperature;BMP_pressure;BME280_temperature;BME280_humidity;BME280_pressure;Samples;Min_cycle;Max_cycle;Signal;HPM_P1;HPM_P2
2021/06/01 00:01:45;;;;;;;;;7.25;4.75;;;;;22.68;32.72;101169.88;5058895;28;45767;-79
2021/06/01 00:04:11;;;;;;;;;6.00;5.50;;;;;22.65;32.48;101163.72;5058053;28;46450;-79
2021/06/01 00:06:38;;;;;;;;;6.25;6.25;;;;;22.64;32.92;101170.78;5058259;28;45962;-78
2021/06/01 00:09:07;;;;;;;;;7.50;7.25;;;;;22.52;32.47;101152.28;5057733;28;45342;-79
2021/06/01 00:11:33;;;;;;;;;5.50;5.00;;;;;22.52;32.49;101157.56;5058543;28;45565;-78
2021/06/01 00:13:58;;;;;;;;;6.25;5.25;;;;;22.51;32.70;101169.00;5058268;28;45387;-79
2021/06/01 00:16:24;;;;;;;;;7.75;6.00;;;;;22.42;32.89;101154.03;5057312;28;45363;-78
2021/06/01 00:18:50;;;;;;;;;6.25;5.25;;;;;22.43;32.76;101158.44;5058187;28;45363;-77
2021/06/01 00:21:16;;;;;;;;;7.00;6.25;;;;;22.39;33.05;101160.16;5057999;28;45396;-77
2021/06/01 00:23:43;;;;;;;;;7.25;7.25;;;;;22.32;33.14;101150.47;5057848;28;46223;-77
2021/06/01 00:26:11;;;;;;;;;6.75;6.00;;;;;22.33;33.00;101160.16;5057704;28;45746;-77
2021/06/01 00:28:38;;;;;;;;;8.00;5.75;;;;;22.26;32.81;101154.00;5058025;28;45389;-80
2021/06/01 00:31:04;;;;;;;;;5.00;5.00;;;;;22.21;32.71;101152.22;5057459;28;45566;-80
2021/06/01 00:33:30;;;;;;;;;8.00;6.50;;;;;22.15;32.69;101150.44;5058108;28;45379;-81
2021/06/01 00:35:56;;;;;;;;;7.25;7.25;;;;;22.15;32.92;101154.81;5058157;28;45341;-81
2021/06/01 00:38:21;;;;;;;;;6.75;6.50;;;;;22.04;32.78;101136.34;5073682;27;45420;-80
2021/06/01 00:40:48;;;;;;;;;5.75;5.00;;;;;22.08;32.46;101146.91;5058150;28;45354;-79
2021/06/01 00:43:13;;;;;;;;;6.75;6.25;;;;;22.07;32.67;101147.78;5057159;28;46214;-76
2021/06/01 00:45:40;;;;;;;;;5.00;5.00;;;;;22.03;33.56;101145.13;5056838;28;45462;-77
2021/06/01 00:48:06;;;;;;;;;7.75;6.00;;;;;21.99;32.99;101140.72;5057489;28;45384;-76
2021/06/01 00:50:32;;;;;;;;;6.00;5.50;;;;;21.93;33.56;101146.84;5057764;28;45369;-77
2021/06/01 00:53:18;;;;;;;;;6.50;6.50;;;;;21.90;32.96;101141.59;5075015;28;45444;-78
2021/06/01 00:55:43;;;;;;;;;6.50;5.25;;;;;21.85;32.95;101133.69;5074959;28;45506;-76
2021/06/01 00:58:11;;;;;;;;;7.00;6.00;;;;;21.88;33.49;101144.22;5075286;27;45428;-79
2021/06/01 01:03:17;;;;;;;;;5.50;5.50;;;;;21.82;33.26;101144.19;5075028;28;45360;-77
2021/06/01 01:05:49;;;;;;;;;6.75;5.50;;;;;21.82;32.61;101144.19;5075337;28;45560;-77
2021/06/01 01:08:34;;;;;;;;;4.75;4.75;;;;;21.78;33.19;101143.31;5074721;28;45467;-77
2021/06/01 01:11:22;;;;;;;;;6.75;4.75;;;;;21.70;32.78;101130.97;5075594;28;45433;-76
2021/06/01 01:13:50;;;;;;;;;7.00;4.25;;;;;21.66;32.87;101138.00;5057715;28;46858;-78
2021/06/01 01:16:18;;;;;;;;;6.75;5.75;;;;;21.63;33.19;101127.44;5075057;27;45351;-78
2021/06/01 01:18:50;;;;;;;;;5.00;3.00;;;;;21.60;32.51;101133.56;5075261;28;45366;-79
2021/06/01 01:21:23;;;;;;;;;5.75;5.00;;;;;21.60;32.83;101137.94;5075032;28;45439;-78
2021/06/01 01:24:16;;;;;;;;;6.00;4.50;;;;;21.59;33.15;101134.44;5070828;28;46294;-78
2021/06/01 01:27:13;;;;;;;;;5.25;5.25;;;;;21.49;33.17;101120.31;5057554;28;45331;-79
2021/06/01 01:29:46;;;;;;;;;4.00;4.00;;;;;21.55;33.13;101131.75;5056942;28;45388;-79
2021/06/01 01:32:27;;;;;;;;;6.00;5.00;;;;;21.50;33.26;101126.47;5057099;28;45273;-78
2021/06/01 01:34:57;;;;;;;;;6.50;5.00;;;;;21.48;33.22;101134.38;5056819;28;45247;-80
2021/06/01 01:37:25;;;;;;;;;5.25;5.25;;;;;21.43;32.78;101122.06;5056038;28;45594;-78
2021/06/01 01:39:56;;;;;;;;;5.50;5.50;;;;;21.48;32.70;101122.94;5056829;28;45443;-78
2021/06/01 01:42:24;;;;;;;;;5.75;5.75;;;;;21.46;32.76;101125.59;5055291;28;45403;-78
2021/06/01 01:44:52;;;;;;;;;5.25;5.00;;;;;21.45;33.02;101117.66;5056666;28;46145;-77
2021/06/01 01:50:04;;;;;;;;;4.00;4.00;;;;;21.43;32.77;101122.94;5056537;28;45325;-78
2021/06/01 01:52:34;;;;;;;;;7.75;4.00;;;;;21.32;32.98;101109.72;5057074;28;45208;-78
2021/06/01 01:55:00;;;;;;;;;4.00;4.00;;;;;21.32;33.17;101116.72;5056091;28;45555;-77
2021/06/01 01:57:26;;;;;;;;;4.50;4.50;;;;;21.28;33.29;101109.66;5055905;28;45321;-78
2021/06/01 01:59:52;;;;;;;;;3.75;3.00;;;;;21.25;33.47;101121.06;5056707;28;45401;-77
2021/06/01 02:02:18;;;;;;;;;4.75;3.00;;;;;21.22;33.18;101117.53;5057833;28;45251;-77
2021/06/01 02:04:45;;;;;;;;;4.00;3.75;;;;;21.20;33.29;101114.91;5058767;28;45295;-77
2021/06/01 02:07:11;;;;;;;;;5.25;5.25;;;;;21.23;32.88;101098.25;5056560;28;45396;-78
2021/06/01 02:09:37;;;;;;;;;4.00;4.00;;;;;21.07;33.10;101087.63;5056202;28;45331;-77
2021/06/01 02:12:03;;;;;;;;;4.50;4.50;;;;;21.16;33.26;101103.50;5056480;28;45566;-78
2021/06/01 02:14:31;;;;;;;;;5.00;5.00;;;;;21.11;33.47;101097.31;5055156;28;46250;-78
2021/06/01 02:16:58;;;;;;;;;6.75;6.50;;;;;21.09;33.12;101101.66;5056580;28;45444;-78
2021/06/01 02:19:24;;;;;;;;;4.00;3.25;;;;;21.09;33.41;101098.19;5056043;28;45518;-78
2021/06/01 02:22:04;;;;;;;;;4.75;4.75;;;;;21.02;33.17;101089.34;5056769;28;45586;-77
2021/06/01 02:24:42;;;;;;;;;5.25;4.00;;;;;21.05;33.21;101099.00;5056640;28;45344;-77
2021/06/01 02:27:17;;;;;;;;;5.25;4.25;;;;;20.95;32.62;101098.09;5055941;28;45638;-78
2021/06/01 02:30:03;;;;;;;;;6.00;6.00;;;;;20.97;33.58;101105.13;5056282;28;45342;-77
2021/06/01 02:32:35;;;;;;;;;4.25;3.75;;;;;20.87;33.02;101096.28;5056913;28;45310;-76
2021/06/01 02:35:07;;;;;;;;;6.25;5.25;;;;;20.90;33.37;101105.94;5056424;28;45383;-77
2021/06/01 02:37:33;;;;;;;;;3.75;3.75;;;;;20.80;33.62;101096.22;5057068;28;45356;-77
2021/06/01 02:40:03;;;;;;;;;6.75;4.75;;;;;20.79;33.48;101092.72;5057420;28;45382;-77
2021/06/01 02:42:29;;;;;;;;;8.00;5.00;;;;;20.75;33.25;101100.59;5072759;28;45503;-78
2021/06/01 02:44:55;;;;;;;;;5.00;5.00;;;;;20.67;33.27;101095.22;5056938;28;45620;-77
2021/06/01 02:47:21;;;;;;;;;5.50;4.00;;;;;20.63;33.42;101091.69;5057472;28;45334;-77
2021/06/01 02:49:49;;;;;;;;;4.25;3.75;;;;;20.62;34.07;101097.81;5055994;28;45344;-78
2021/06/01 02:52:15;;;;;;;;;4.00;4.00;;;;;20.47;33.67;101076.63;5056088;28;45343;-77
2021/06/01 02:54:41;;;;;;;;;5.25;4.50;;;;;20.53;34.45;101089.84;5055633;28;46348;-76
2021/06/01 02:57:08;;;;;;;;;5.00;4.00;;;;;20.50;34.08;101092.44;5055450;28;45846;-77
2021/06/01 02:59:34;;;;;;;;;3.50;3.50;;;;;20.48;33.83;101099.44;5055353;28;45421;-76
2021/06/01 03:02:00;;;;;;;;;7.00;5.25;;;;;20.44;34.14;101089.78;5056169;28;45824;-77
2021/06/01 03:04:25;;;;;;;;;5.00;4.00;;;;;20.46;34.26;101085.44;5055826;28;45395;-77
2021/06/01 03:06:51;;;;;;;;;7.50;6.00;;;;;20.48;34.01;101087.19;5055084;28;45271;-76
2021/06/01 03:09:16;;;;;;;;;2.75;2.00;;;;;20.51;34.52;101086.31;5055330;28;45336;-77
2021/06/01 03:11:45;;;;;;;;;5.00;5.00;;;;;20.47;34.12;101076.63;5055970;28;45668;-77
2021/06/01 03:14:10;;;;;;;;;5.25;5.25;;;;;20.51;34.12;101083.69;5055184;28;45550;-77
2021/06/01 03:16:36;;;;;;;;;4.00;4.00;;;;;20.50;33.91;101074.94;5055427;28;45462;-77
2021/06/01 03:19:02;;;;;;;;;5.00;5.00;;;;;20.50;33.99;101079.31;5055463;28;45389;-77
2021/06/01 03:21:28;;;;;;;;;4.25;4.00;;;;;20.44;33.93;101074.88;5055933;28;45413;-77
2021/06/01 03:23:53;;;;;;;;;7.25;4.75;;;;;20.40;34.34;101084.50;5055109;28;45826;-77
2021/06/01 03:26:19;;;;;;;;;4.00;4.00;;;;;20.44;34.30;101074.00;5055149;28;45214;-77
2021/06/01 03:28:44;;;;;;;;;4.50;4.50;;;;;20.34;34.51;101060.78;5055410;28;45181;-78
2021/06/01 03:31:11;;;;;;;;;5.50;5.00;;;;;20.30;34.37;101051.09;5055018;28;45568;-78
2021/06/01 03:33:39;;;;;;;;;4.00;4.00;;;;;20.41;34.87;101073.09;5055090;28;46265;-77
2021/06/01 03:36:05;;;;;;;;;6.00;5.00;;;;;20.38;34.20;101062.56;5054927;28;45409;-78
2021/06/01 03:38:32;;;;;;;;;3.50;3.50;;;;;20.32;34.18;101054.63;5055439;28;45767;-77
2021/06/01 03:40:58;;;;;;;;;5.00;3.50;;;;;20.22;34.64;101037.88;5055699;28;45477;-78
2021/06/01 03:43:23;;;;;;;;;5.00;4.00;;;;;20.32;34.25;101059.00;5054605;28;45343;-78
2021/06/01 03:45:49;;;;;;;;;5.00;5.00;;;;;20.29;34.49;101057.22;5054977;28;45185;-76
2021/06/01 03:48:15;;;;;;;;;3.25;3.00;;;;;20.20;34.74;101050.13;5055509;28;45922;-76
2021/06/01 03:50:41;;;;;;;;;5.50;5.00;;;;;20.24;34.60;101056.31;5054970;28;45242;-79
2021/06/01 03:53:06;;;;;;;;;6.75;6.25;;;;;20.18;34.35;101043.09;5054222;28;45242;-77
2021/06/01 03:55:32;;;;;;;;;6.00;5.00;;;;;20.21;34.60;101057.16;5054707;28;45508;-77
2021/06/01 03:57:58;;;;;;;;;5.25;4.25;;;;;20.19;34.70;101053.63;5055248;28;45329;-76
2021/06/01 04:00:28;;;;;;;;;4.75;4.75;;;;;20.16;34.79;101047.47;5054961;28;45378;-77
2021/06/01 04:02:53;;;;;;;;;7.75;7.50;;;;;20.20;35.13;101062.41;5055094;28;45358;-78
2021/06/01 04:05:19;;;;;;;;;5.00;5.00;;;;;20.15;34.59;101056.22;5070410;28;45428;-77
2021/06/01 04:07:46;;;;;;;;;6.00;5.25;;;;;20.15;34.99;101058.84;5055051;28;45624;-77
2021/06/01 04:10:13;;;;;;;;;8.75;8.75;;;;;20.12;34.54;101059.69;5055149;28;45327;-79
2021/06/01 04:12:39;;;;;;;;;9.50;9.25;;;;;20.08;34.67;101060.56;5055351;28;45415;-78
2021/06/01 04:15:06;;;;;;;;;9.00;6.25;;;;;20.00;35.41;101060.47;5055510;28;45331;-76
2021/06/01 04:17:31;;;;;;;;;6.50;4.50;;;;;19.97;35.47;101063.06;5057024;28;45373;-77
2021/06/01 04:19:57;;;;;;;;;7.75;7.00;;;;;19.94;34.87;101061.28;5065781;28;45441;-78
2021/06/01 04:22:22;;;;;;;;;8.50;7.25;;;;;19.84;35.22;101050.63;5060707;28;45553;-76
2021/06/01 04:24:48;;;;;;;;;6.00;6.00;;;;;19.85;35.50;101055.00;5060524;28;45331;-79
2021/06/01 04:27:14;;;;;;;;;7.25;6.00;;;;;19.84;35.40;101054.16;5058157;28;45426;-79
2021/06/01 04:29:39;;;;;;;;;5.75;5.75;;;;;19.78;35.42;101047.09;5058875;28;45551;-76
2021/06/01 04:32:05;;;;;;;;;8.00;8.00;;;;;19.80;35.24;101050.63;5055955;28;45455;-76
2021/06/01 04:34:31;;;;;;;;;4.00;4.00;;;;;19.78;35.96;101044.47;5057677;28;45378;-76
2021/06/01 04:36:56;;;;;;;;;9.25;5.50;;;;;19.78;35.86;101040.94;5057806;28;45345;-78
2021/06/01 04:39:23;;;;;;;;;8.25;5.50;;;;;19.77;35.62;101033.91;5057589;28;45485;-79
2021/06/01 04:41:48;;;;;;;;;6.50;6.50;;;;;19.87;35.45;101046.31;5057242;28;45933;-77
2021/06/01 04:44:14;;;;;;;;;5.00;5.00;;;;;19.90;35.65;101048.97;5056878;28;45451;-77
2021/06/01 04:46:40;;;;;;;;;5.00;5.00;;;;;19.85;35.40;101041.88;5057668;28;45342;-79
2021/06/01 04:49:05;;;;;;;;;6.00;5.25;;;;;19.88;35.67;101041.94;5057214;28;47065;-78
2021/06/01 04:51:31;;;;;;;;;5.00;5.00;;;;;19.84;35.85;101038.38;5057212;28;46203;-78
2021/06/01 04:53:59;;;;;;;;;6.00;6.00;;;;;19.88;35.43;101048.06;5057482;28;45440;-78
2021/06/01 04:56:26;;;;;;;;;10.25;7.50;;;;;19.80;35.85;101036.56;5056920;28;45324;-77
2021/06/01 04:58:52;;;;;;;;;8.00;6.75;;;;;19.90;35.90;101034.97;5057751;28;45632;-78
2021/06/01 05:01:18;;;;;;;;;4.50;4.50;;;;;19.93;35.81;101040.22;5057018;28;45389;-80
2021/06/01 05:03:43;;;;;;;;;6.00;6.00;;;;;19.91;35.49;101042.84;5055669;28;45445;-78
2021/06/01 05:06:10;;;;;;;;;5.50;5.50;;;;;19.89;35.73;101043.72;5057038;28;45517;-77
2021/06/01 05:08:36;;;;;;;;;9.50;8.25;;;;;19.92;35.76;101043.75;5057675;28;45484;-77
2021/06/01 05:11:03;;;;;;;;;8.50;8.00;;;;;19.88;35.55;101039.31;5055365;28;47141;-77
2021/06/01 05:13:29;;;;;;;;;6.50;6.50;;;;;19.82;35.41;101033.97;5058312;28;45778;-78
2021/06/01 05:15:55;;;;;;;;;5.00;5.00;;;;;19.83;35.84;101041.88;5058851;28;45349;-78
2021/06/01 05:18:21;;;;;;;;;5.50;5.00;;;;;19.84;35.93;101040.13;5058561;28;45259;-77
2021/06/01 05:20:47;;;;;;;;;6.00;6.00;;;;;19.84;35.78;101043.63;5057330;28;46443;-77
2021/06/01 05:23:14;;;;;;;;;6.00;6.00;;;;;19.69;36.13;101018.09;5056090;28;45272;-76
2021/06/01 05:25:40;;;;;;;;;6.50;6.50;;;;;19.77;35.99;101029.56;5057266;28;45497;-77
2021/06/01 05:28:06;;;;;;;;;7.25;7.25;;;;;19.76;36.09;101019.91;5056156;28;45508;-77
2021/06/01 05:30:50;;;;;;;;;7.00;6.00;;;;;19.71;35.88;101003.19;5055735;28;46137;-77
2021/06/01 05:33:18;;;;;;;;;7.00;5.75;;;;;19.72;35.86;101010.22;5054131;28;45464;-77
2021/06/01 05:35:53;;;;;;;;;6.00;6.00;;;;;19.80;36.02;101026.06;5055924;28;45448;-77
2021/06/01 05:38:23;;;;;;;;;4.50;4.50;;;;;19.83;36.24;101030.47;5054537;28;45267;-77
2021/06/01 05:40:51;;;;;;;;;7.00;6.75;;;;;19.83;36.11;101019.94;5053123;28;46616;-76
2021/06/01 05:43:17;;;;;;;;;6.25;6.25;;;;;19.85;36.28;101027.00;5055457;28;45505;-78
2021/06/01 05:45:43;;;;;;;;;6.75;6.75;;;;;19.83;36.24;101017.31;5055669;28;45545;-77
2021/06/01 05:48:10;;;;;;;;;10.00;8.00;;;;;19.85;36.07;101023.47;5055312;28;45357;-76
2021/06/01 05:50:37;;;;;;;;;8.25;6.25;;;;;19.87;36.33;101024.41;5054767;28;47709;-76
2021/06/01 05:53:05;;;;;;;;;8.50;7.00;;;;;19.88;36.16;101024.44;5055203;28;45666;-78
2021/06/01 05:55:31;;;;;;;;;6.50;6.50;;;;;19.83;35.91;101006.81;5056159;28;45494;-79
2021/06/01 05:57:56;;;;;;;;;5.75;5.75;;;;;19.86;36.03;101014.78;5055621;27;45485;-78
2021/06/01 06:00:27;;;;;;;;;7.00;7.00;;;;;19.88;36.21;101018.31;5057468;28;46251;-82
2021/06/01 06:02:54;;;;;;;;;9.25;6.00;;;;;19.84;35.64;101009.47;5060064;28;45449;-83
2021/06/01 06:05:20;;;;;;;;;7.75;5.75;;;;;19.90;35.91;101011.31;5057623;28;45402;-81
2021/06/01 06:07:46;;;;;;;;;5.75;5.00;;;;;19.99;36.33;101023.66;5056771;28;45430;-77
2021/06/01 06:10:13;;;;;;;;;6.25;6.25;;;;;19.97;35.69;101021.00;5055885;28;45453;-75
2021/06/01 06:12:39;;;;;;;;;10.00;7.00;;;;;19.97;35.82;101009.63;5055107;28;45492;-76
2021/06/01 06:15:17;;;;;;;;;7.50;6.25;;;;;20.01;35.82;101020.19;5055783;28;45234;-79
2021/06/01 06:17:57;;;;;;;;;6.50;6.50;;;;;20.09;35.97;101014.97;5063055;28;45422;-81
2021/06/01 06:20:23;;;;;;;;;7.50;7.00;;;;;20.14;35.80;101015.03;5062198;28;45375;-80
2021/06/01 06:22:48;;;;;;;;;10.75;9.00;;;;;20.15;35.67;101019.41;5060453;28;45330;-81
2021/06/01 06:25:15;;;;;;;;;10.25;5.00;;;;;20.15;35.83;101011.50;5056112;28;45283;-81
2021/06/01 06:27:40;;;;;;;;;9.00;8.50;;;;;20.14;36.03;101001.91;5063295;28;45503;-75
2021/06/01 06:30:09;;;;;;;;;6.75;6.75;;;;;20.21;35.92;101016.84;5073524;28;45349;-76
2021/06/01 06:32:37;;;;;;;;;8.00;8.00;;;;;20.22;35.56;101016.84;5080572;28;45062;-81
2021/06/01 06:35:04;;;;;;;;;8.50;7.00;;;;;20.23;36.02;101013.34;5059227;28;45356;-80
2021/06/01 06:37:30;;;;;;;;;9.00;7.00;;;;;20.20;35.80;101000.16;5055035;28;45399;-74
2021/06/01 06:39:56;;;;;;;;;10.75;8.75;;;;;20.23;35.85;100994.09;5057853;28;45753;-76
2021/06/01 06:42:24;;;;;;;;;6.75;6.00;;;;;20.33;35.61;101002.91;5054467;28;45453;-78
2021/06/01 06:44:52;;;;;;;;;7.00;6.25;;;;;20.35;35.98;100988.91;5054856;28;45478;-75
2021/06/01 06:50:11;;;;;;;;;9.00;8.00;;;;;20.51;35.67;101003.06;5065244;28;46317;-78
2021/06/01 06:52:37;;;;;;;;;9.00;8.00;;;;;20.52;35.84;101004.78;5054330;28;45450;-75
2021/06/01 06:55:05;;;;;;;;;7.75;7.25;;;;;20.52;35.75;101003.91;5053592;28;45516;-77
2021/06/01 06:57:32;;;;;;;;;7.00;5.50;;;;;20.53;35.98;101005.69;5055390;28;45272;-76
2021/06/01 06:59:57;;;;;;;;;6.00;6.00;;;;;20.62;35.95;100999.63;5056256;28;45424;-76
2021/06/01 07:02:25;;;;;;;;;7.75;6.25;;;;;20.62;35.76;100989.97;5049558;28;45571;-78
2021/06/01 07:04:53;;;;;;;;;10.25;6.50;;;;;20.56;35.92;100982.91;5052270;28;45693;-79
2021/06/01 07:07:20;;;;;;;;;6.00;6.00;;;;;20.59;35.54;100984.66;5054133;28;45652;-77
2021/06/01 07:09:46;;;;;;;;;6.75;6.75;;;;;20.65;36.03;100997.88;5052881;28;45389;-79
2021/06/01 07:12:13;;;;;;;;;5.50;5.50;;;;;20.70;36.15;100987.38;5054433;28;45362;-77
2021/06/01 07:14:58;;;;;;;;;9.75;8.25;;;;;20.76;36.14;100984.81;5055602;28;45311;-78
2021/06/01 07:17:24;;;;;;;;;7.00;7.00;;;;;20.80;36.22;100993.59;5040226;28;45727;-77
2021/06/01 07:19:53;;;;;;;;;8.00;6.00;;;;;20.84;35.93;100996.25;5056239;28;45692;-78
2021/06/01 07:22:19;;;;;;;;;10.25;8.75;;;;;20.81;35.70;100988.34;5054997;28;45410;-77
2021/06/01 07:24:46;;;;;;;;;9.50;9.50;;;;;20.90;35.50;100984.00;5055559;28;45359;-79
2021/06/01 07:27:12;;;;;;;;;9.00;8.50;;;;;20.96;35.28;100982.28;5054202;28;45442;-78
2021/06/01 07:29:37;;;;;;;;;12.00;6.25;;;;;20.98;35.52;100974.38;5051486;28;46175;-78
2021/06/01 07:32:04;;;;;;;;;7.00;7.00;;;;;21.01;35.46;100969.13;5048095;28;46101;-83
2021/06/01 07:34:29;;;;;;;;;10.00;10.00;;;;;20.99;35.32;100971.78;5054961;28;45897;-78
2021/06/01 07:36:55;;;;;;;;;6.50;6.25;;;;;21.02;35.37;100965.63;5053787;28;45457;-80
2021/06/01 07:39:21;;;;;;;;;8.25;6.25;;;;;21.07;35.70;100969.16;5052334;28;45882;-79
2021/06/01 07:41:46;;;;;;;;;7.75;7.75;;;;;21.16;35.24;100976.22;5053664;28;45385;-77
2021/06/01 07:44:12;;;;;;;;;6.75;6.00;;;;;21.19;35.69;100969.19;5053147;27;45441;-77
2021/06/01 07:46:38;;;;;;;;;8.25;7.75;;;;;21.22;35.42;100972.72;5058220;28;45258;-77
2021/06/01 07:49:04;;;;;;;;;12.00;8.75;;;;;21.22;35.25;100956.91;5059908;28;45347;-80
2021/06/01 07:51:31;;;;;;;;;9.00;8.00;;;;;21.29;35.19;100964.84;5059520;28;45357;-78
2021/06/01 07:53:59;;;;;;;;;8.25;7.75;;;;;21.25;35.96;100957.81;5055799;28;45430;-76
2021/06/01 07:56:25;;;;;;;;;5.00;5.00;;;;;21.38;35.19;100968.38;5058661;28;45428;-77
2021/06/01 07:58:52;;;;;;;;;6.75;6.00;;;;;21.31;35.49;100942.03;5058573;28;45422;-76
2021/06/01 08:01:18;;;;;;;;;8.00;7.00;;;;;21.48;35.38;100964.88;5058135;28;45497;-77
2021/06/01 08:03:44;;;;;;;;;9.50;9.50;;;;;21.57;35.40;100964.91;5058504;28;45350;-76
2021/06/01 08:06:10;;;;;;;;;9.75;9.50;;;;;21.61;35.08;100960.53;5058318;28;45409;-78
2021/06/01 08:08:36;;;;;;;;;6.75;6.00;;;;;21.64;35.05;100953.53;5057681;28;46693;-77
2021/06/01 08:11:03;;;;;;;;;6.50;6.50;;;;;21.64;35.59;100939.47;5057616;28;45643;-78
2021/06/01 08:13:30;;;;;;;;;8.50;6.00;;;;;21.68;35.63;100933.34;5058099;28;45657;-78
2021/06/01 08:15:57;;;;;;;;;7.00;6.25;;;;;21.78;35.59;100935.09;5060592;28;45534;-77
2021/06/01 08:18:25;;;;;;;;;7.25;6.25;;;;;21.79;35.19;100933.34;5063194;28;46323;-77
2021/06/01 08:21:06;;;;;;;;;8.75;7.75;;;;;21.86;35.33;100939.50;5057487;28;45287;-80
2021/06/01 08:23:32;;;;;;;;;8.00;8.00;;;;;21.89;35.25;100935.09;5058269;28;45460;-78
2021/06/01 08:25:58;;;;;;;;;7.75;7.75;;;;;21.93;35.27;100926.31;5058591;28;45505;-77
2021/06/01 08:28:24;;;;;;;;;9.50;9.50;;;;;21.99;35.42;100930.69;5057757;28;46025;-79
2021/06/01 08:30:51;;;;;;;;;7.50;6.00;;;;;22.01;34.84;100926.31;5058217;28;45310;-77
2021/06/01 08:33:17;;;;;;;;;8.00;8.00;;;;;22.07;35.51;100920.16;5055711;28;45329;-76
2021/06/01 08:35:43;;;;;;;;;7.25;6.75;;;;;22.11;35.20;100917.50;5073273;27;45677;-76
2021/06/01 08:38:08;;;;;;;;;8.00;7.50;;;;;22.13;34.97;100911.38;5057333;28;46334;-76
2021/06/01 08:40:34;;;;;;;;;10.00;10.00;;;;;22.22;35.15;100920.13;5057182;28;45515;-74
2021/06/01 08:43:00;;;;;;;;;10.00;7.75;;;;;22.27;35.17;100917.47;5058138;28;45438;-74
2021/06/01 08:45:26;;;;;;;;;11.25;9.00;;;;;22.33;35.44;100914.84;5057966;28;45326;-74
2021/06/01 08:47:56;;;;;;;;;10.00;8.00;;;;;22.36;35.14;100917.44;5061247;28;45358;-74
2021/06/01 08:50:22;;;;;;;;;9.00;7.75;;;;;22.40;34.99;100913.97;5058960;28;45284;-74
2021/06/01 08:52:48;;;;;;;;;9.50;9.50;;;;;22.43;35.30;100913.06;5057224;28;45358;-75
2021/06/01 08:55:13;;;;;;;;;9.25;8.25;;;;;22.49;35.65;100913.06;5056772;28;45347;-75
2021/06/01 08:57:40;;;;;;;;;7.75;7.00;;;;;22.55;35.70;100915.69;5057194;28;45465;-76
2021/06/01 09:00:10;;;;;;;;;8.50;7.00;;;;;22.59;35.39;100910.41;5072508;27;45830;-76
2021/06/01 09:02:36;;;;;;;;;8.25;8.25;;;;;22.57;35.55;100906.00;5056716;28;45291;-79
2021/06/01 09:05:06;;;;;;;;;11.25;8.00;;;;;22.66;35.70;100913.00;5056190;28;45289;-77
2021/06/01 09:21:32;;;;;;;;;8.50;7.25;;;;;22.96;35.28;100904.94;5054551;28;45760;-77
2021/06/01 09:24:01;;;;;;;;;8.50;8.00;;;;;22.95;35.11;100885.59;5058551;28;45471;-77
2021/06/01 09:29:21;;;;;;;;;7.50;7.00;;;;;23.12;35.09;100903.09;5057733;28;45458;-76
2021/06/01 09:32:02;;;;;;;;;7.25;7.25;;;;;23.16;35.07;100894.28;5054852;28;45416;-77
2021/06/01 09:34:34;;;;;;;;;9.00;8.00;;;;;23.21;35.10;100884.63;5055377;28;45418;-78
2021/06/01 09:37:20;;;;;;;;;10.75;9.00;;;;;23.28;35.06;100890.69;5053750;28;45302;-77
2021/06/01 09:40:07;;;;;;;;;7.50;7.00;;;;;23.32;35.18;100879.25;5054476;28;47102;-76
2021/06/01 09:42:34;;;;;;;;;8.50;6.50;;;;;23.39;34.75;100873.00;5055339;28;45637;-79
2021/06/01 09:45:13;;;;;;;;;7.75;7.00;;;;;23.45;35.25;100874.72;5064450;28;45516;-77
2021/06/01 09:47:43;;;;;;;;;7.00;7.00;;;;;23.45;34.92;100862.41;5063493;28;45517;-75
2021/06/01 09:50:18;;;;;;;;;10.00;9.00;;;;;23.52;34.86;100868.53;5060713;28;45419;-75
2021/06/01 09:52:46;;;;;;;;;6.75;6.75;;;;;23.60;34.60;100874.63;5056363;28;45527;-76
2021/06/01 09:55:23;;;;;;;;;6.75;6.75;;;;;23.64;34.61;100872.81;5055869;28;45311;-78
2021/06/01 09:57:49;;;;;;;;;10.50;8.50;;;;;23.67;34.71;100863.97;5056415;28;45417;-76
2021/06/01 10:00:17;;;;;;;;;8.25;8.25;;;;;23.76;34.93;100858.59;5055683;28;45763;-76
2021/06/01 10:02:46;;;;;;;;;8.25;7.25;;;;;23.82;34.92;100858.56;5071304;28;45834;-76
2021/06/01 10:05:19;;;;;;;;;10.00;7.75;;;;;23.87;34.67;100859.38;5055827;28;45442;-75
2021/06/01 10:07:46;;;;;;;;;6.25;5.00;;;;;23.90;35.02;100853.22;5055943;28;45431;-75
2021/06/01 10:10:23;;;;;;;;;12.50;8.00;;;;;23.98;34.66;100861.97;5055127;28;45933;-75
2021/06/01 10:12:53;;;;;;;;;9.00;8.00;;;;;23.99;34.54;100855.78;5055785;28;45314;-75
2021/06/01 10:15:22;;;;;;;;;7.50;6.00;;;;;24.09;34.44;100857.44;5056222;28;45378;-76
2021/06/01 10:17:49;;;;;;;;;5.50;5.50;;;;;24.11;34.33;100852.13;5063943;28;45326;-74
2021/06/01 10:20:18;;;;;;;;;5.75;5.50;;;;;24.15;33.97;100855.63;5057676;28;46264;-74
2021/06/01 10:22:44;;;;;;;;;7.25;6.50;;;;;24.22;33.95;100852.88;5056097;28;45370;-74
2021/06/01 10:25:10;;;;;;;;;9.25;9.25;;;;;24.27;33.96;100848.44;5055906;28;45375;-75
2021/06/01 10:27:36;;;;;;;;;7.50;7.25;;;;;24.38;33.73;100852.72;5055880;28;45444;-77
2021/06/01 10:30:04;;;;;;;;;7.00;7.00;;;;;24.45;33.45;100842.94;5054556;28;46505;-76
2021/06/01 10:32:34;;;;;;;;;6.50;6.25;;;;;24.52;33.35;100836.66;5055210;28;45815;-75
2021/06/01 10:35:02;;;;;;;;;7.00;5.00;;;;;24.55;33.55;100826.91;5055375;28;45370;-76
2021/06/01 10:51:57;;;;;;;;;7.00;7.00;;;;;24.90;32.92;100815.88;5056054;28;45449;-79
2021/06/01 10:57:08;;;;;;;;;8.50;7.75;;;;;24.97;33.38;100805.19;5056655;28;46037;-78
2021/06/01 11:01:49;;;;;;;;;10.00;8.50;;;;;25.08;32.81;100809.44;5056051;28;45318;-75
2021/06/01 11:03:05;;;;;;;;;7.50;7.50;;;;;25.08;32.52;100798.84;5054599;28;45890;-77
2021/06/01 11:05:39;;;;;;;;;8.50;8.00;;;;;25.19;32.16;100802.19;5053742;28;45781;-76
2021/06/01 11:08:12;;;;;;;;;9.25;7.50;;;;;25.28;32.06;100806.44;5054090;28;45279;-76
2021/06/01 11:10:45;;;;;;;;;8.75;8.00;;;;;25.34;32.48;100811.66;5055394;28;45341;-78
2021/06/01 11:13:18;;;;;;;;;9.00;7.00;;;;;25.42;31.99;100811.59;5053434;28;45428;-75
2021/06/01 11:15:54;;;;;;;;;9.00;8.00;;;;;25.48;32.33;100808.81;5035590;28;45698;-75
2021/06/01 11:18:27;;;;;;;;;7.50;6.75;;;;;25.54;32.34;100799.88;5055018;28;45457;-77
2021/06/01 11:21:20;;;;;;;;;5.25;5.25;;;;;25.61;32.36;100797.09;5057787;28;45789;-77
2021/06/01 11:33:01;;;;;;;;;9.00;8.25;;;;;25.91;30.73;100796.56;5058389;28;45773;-76
2021/06/01 11:35:28;;;;;;;;;9.25;9.00;;;;;25.97;31.44;100796.41;5057311;28;45846;-76
2021/06/01 11:38:20;;;;;;;;;8.75;8.75;;;;;26.04;30.59;100787.44;5059349;28;45486;-78
2021/06/01 11:43:38;;;;;;;;;8.00;8.00;;;;;26.16;30.68;100767.78;5058817;28;45344;-74
2021/06/01 11:51:29;;;;;;;;;8.25;7.50;;;;;26.44;29.74;100774.28;5060642;28;45424;-78
2021/06/01 11:54:17;;;;;;;;;12.00;9.75;;;;;26.49;30.13;100761.75;5061099;28;45483;-72
2021/06/01 11:57:01;;;;;;;;;7.75;6.75;;;;;26.60;30.04;100766.84;5058040;28;47274;-75
2021/06/01 12:02:18;;;;;;;;;9.25;9.25;;;;;26.67;30.12;100760.47;5056109;28;45491;-72
2021/06/01 12:13:32;;;;;;;;;8.00;8.00;;;;;27.07;28.65;100766.66;5055537;28;45287;-73
2021/06/01 12:18:50;;;;;;;;;7.00;7.00;;;;;27.20;28.57;100746.84;5057240;28;45822;-75
2021/06/01 12:21:21;;;;;;;;;7.00;6.50;;;;;27.35;29.21;100756.19;5058789;28;45327;-81
2021/06/01 12:24:21;;;;;;;;;9.75;7.75;;;;;27.42;28.68;100752.44;5057713;28;45165;-79
2021/06/01 12:32:30;;;;;;;;;8.75;8.75;;;;;27.65;28.31;100748.34;5070045;28;45819;-76
2021/06/01 12:43:20;;;;;;;;;6.25;5.00;;;;;27.99;28.13;100746.50;5056712;28;45467;-76
2021/06/01 13:07:13;;;;;;;;;7.75;6.50;;;;;28.60;26.81;100735.81;5054863;28;45256;-78
2021/06/01 13:19:12;;;;;;;;;8.50;7.00;;;;;28.86;25.81;100721.66;5036723;28;45806;-77
2021/06/01 13:20:05;;;;;;;;;4.25;4.25;;;;;29.06;25.21;100727.25;5059466;28;45354;-77
2021/06/01 13:22:51;;;;;;;;;5.75;5.75;;;;;29.13;24.85;100721.66;5054422;28;45401;-78
2021/06/01 13:47:16;;;;;;;;;5.75;5.75;;;;;30.01;23.41;100703.47;5059972;28;45413;-77
2021/06/01 13:50:06;;;;;;;;;6.00;6.00;;;;;30.09;23.85;100710.25;5056436;28;45799;-76
2021/06/01 13:52:52;;;;;;;;;9.50;8.00;;;;;30.17;23.77;100709.06;5056961;27;45329;-76